Ledsham, United Kingdom
Current Conditions -  °F | °C
As of 2:20 PM on Sunday 21 Dec 2014 (Local Time) from EGNM Reporting Station
Drizzle Drizzle  
Wind Chill: 41°   Ceiling: 1100
Heat Index: 48°   Visibility: 6mi
Dew Point: 45°   Wind: 22mph
Humidity: 87%   Direction: 240°WSW
Pressure: 29.97"   Gusts: 36mph
Location:  53.76°N, 1.31°W
Report Text: EGNM 211420Z 24019G31KT 210V270 9999 -DZ FEW009 BKN011 09/07 Q1015
Loading
Personal Weather Stations






























Interactive Weather Map New forecast layout! Learn more

10-Day Weather Forecast

Advertisements
Track Severe Weather on mobile